Latest Weather Observations for Parawa West

IDS60801

Issued at 12:02 pm CDT Friday 9 December 2016 (issued every 30 minutes, with the page automatically refreshed every 10 minutes)

About weather observations | Map of weather stations | Latest weather observations for SA | Other Formats
Station Details ID: 023875 Name: SECOND VALLEY FOREST AWS Lat: -35.57 Lon: 138.29 Height: 341.0 m
Data from the previous 72 hours. | See also: Recent months at Parawa West
Date/Time
CDT
Temp
°C
App
Temp
°C
Dew
Point
°C
Rel
Hum
%
Delta-T
°C
Wind Press
QNH
hPa
Press
MSL
hPa
Rain since
9am
mm
Dir  Spd
km/h
Gust
km/h
Spd
kts
Gust
kts
09/12:00pm 12.3 7.8 6.8 69 2.7 S 20 26 11 14 1023.2 1022.5 -
09/11:30am 12.3 7.8 6.1 66 3.0 SSE 19 24 10 13 1023.0 1022.3 -
09/11:00am 12.1 7.7 6.6 69 2.7 S 19 26 10 14 1022.7 1022.0 -
09/10:30am 12.4 8.4 6.5 67 2.8 S 17 26 9 14 1022.5 1021.8 -
09/08:30am 12.3 6.5 4.5 59 3.6 S 24 35 13 19 1021.4 1020.6 0.4
09/08:00am 11.3 6.5 5.4 67 2.8 S 20 28 11 15 1020.9 1020.1 0.4
09/07:30am 11.0 6.9 4.2 63 3.1 SSW 15 24 8 13 1020.7 1019.9 0.4
09/07:00am 10.9 5.5 4.4 64 3.0 S 22 28 12 15 1020.0 1019.3 0.4
09/06:30am 10.5 5.5 4.4 66 2.8 S 20 28 11 15 1019.7 1019.0 0.4
09/06:00am 10.4 5.3 4.3 66 2.8 S 20 28 11 15 1019.2 1018.5 0.4
09/05:30am 10.5 5.1 4.4 66 2.8 S 22 32 12 17 1018.9 1018.1 0.4
09/05:00am 10.4 6.0 4.8 68 2.6 SSW 17 28 9 15 1018.5 1017.7 0.4
09/04:30am 10.2 5.2 3.7 64 2.9 S 19 28 10 15 1018.2 1017.4 0.4
09/04:00am 10.3 5.2 4.0 65 2.8 S 20 30 11 16 1017.8 1017.0 0.4
09/03:30am 10.3 5.4 4.0 65 2.8 SSW 19 28 10 15 1017.6 1016.8 0.4
09/03:00am 10.3 6.2 4.2 66 2.8 SSW 15 24 8 13 1017.4 1016.6 0.4
09/02:30am 10.4 5.2 3.4 62 3.1 S 20 35 11 19 1017.3 1016.5 0.4
09/02:00am 10.5 3.9 4.0 64 2.9 SSW 28 37 15 20 1017.1 1016.4 0.4
09/01:30am 10.6 5.3 4.9 68 2.6 SSW 22 32 12 17 1017.0 1016.3 0.4
09/01:00am 10.5 5.0 3.8 63 3.0 SSW 22 33 12 18 1016.9 1016.2 0.4
09/12:30am 10.8 4.6 4.5 65 2.9 SSW 26 41 14 22 1016.9 1016.2 0.4
09/12:00am 10.8 5.7 6.0 72 2.3 SSW 22 33 12 18 1017.1 1016.4 0.4
 
Date/Time
CDT
Temp
°C
App
Temp
°C
Dew
Point
°C
Rel
Hum
%
Delta-T
°C
Wind Press
QNH
hPa
Press
MSL
hPa
Rain since
9am
mm
Dir  Spd
km/h
Gust
km/h
Spd
kts
Gust
kts
08/11:30pm 10.7 5.9 5.7 71 2.3 SSW 20 30 11 16 1016.9 1016.2 0.4
08/11:00pm 10.8 4.9 5.6 70 2.4 SSW 26 37 14 20 1016.9 1016.2 0.4
08/10:30pm 10.9 5.9 6.6 75 2.1 SSW 22 37 12 20 1017.0 1016.3 0.4
08/10:00pm 10.7 6.7 8.1 84 1.3 SSW 19 32 10 17 1016.5 1015.8 0.4
08/09:30pm 10.6 5.6 8.0 84 1.3 SSW 24 37 13 20 1015.9 1015.1 0.4
08/09:25pm 10.7 4.9 7.9 83 1.4 SSW 28 44 15 24 1015.9 1015.1 0.4
08/09:00pm 10.7 7.0 8.1 84 1.3 SSW 17 26 9 14 1015.6 1014.8 0.4
08/08:30pm 11.6 6.9 7.9 78 1.8 SW 22 37 12 20 1015.0 1014.2 0.4
08/08:00pm 11.7 7.4 6.8 72 2.4 SW 19 35 10 19 1014.6 1013.8 0.4
08/07:30pm 12.6 7.1 7.7 72 2.4 SW 26 44 14 24 1014.0 1013.3 0.4
08/07:00pm 13.2 7.9 7.0 66 3.1 SW 24 41 13 22 1013.6 1012.8 0.4
08/06:30pm 13.7 8.6 7.5 66 3.1 SW 24 37 13 20 1012.9 1012.1 0.4
08/06:00pm 13.8 8.6 7.1 64 3.3 SW 24 43 13 23 1012.4 1011.6 0.4
08/05:48pm 13.9 8.0 7.7 66 3.1 SW 28 54 15 29 1012.2 1011.4 0.4
08/05:30pm 13.6 9.1 8.4 71 2.6 SW 22 39 12 21 1012.1 1011.3 0.4
08/05:00pm 12.4 7.6 8.9 79 1.8 SW 24 39 13 21 1011.8 1011.0 0.4
08/04:30pm 13.8 8.4 8.0 68 2.9 SW 26 37 14 20 1011.3 1010.4 0.4
08/04:00pm 13.1 7.6 9.0 76 2.1 SW 28 44 15 24 1011.1 1010.2 0.4
08/03:30pm 15.5 11.4 8.5 63 3.6 SW 20 37 11 20 1010.5 1009.7 0.4
08/03:00pm 14.8 10.2 8.3 65 3.3 SW 22 33 12 18 1010.4 1009.6 0.4
08/02:32pm 13.1 7.2 7.5 69 2.8 WSW 28 46 15 25 1010.5 1009.7 0.4
08/02:30pm 13.4 7.9 7.4 67 3.0 WSW 26 46 14 25 1010.4 1009.6 0.4
08/02:07pm 14.2 8.3 7.7 65 3.3 WSW 28 52 15 28 1010.0 1009.2 0.4
08/02:00pm 14.7 10.7 10.3 75 2.3 WSW 22 41 12 22 1010.1 1009.3 0.2
08/01:30pm 14.2 10.0 9.6 74 2.4 WSW 22 39 12 21 1009.9 1009.1 0.0
08/01:00pm 16.0 9.2 7.0 55 4.5 WSW 32 52 17 28 1009.2 1008.4 0.0
08/12:46pm 15.8 9.7 6.5 54 4.6 WSW 28 50 15 27 1009.2 1008.4 0.0
08/12:30pm 15.1 9.8 6.9 58 4.1 WSW 24 41 13 22 1009.0 1008.2 0.0
08/12:00pm 14.8 8.3 6.6 58 4.1 WSW 30 48 16 26 1008.5 1007.6 0.0
08/11:30am 15.2 7.7 6.2 55 4.4 W 35 54 19 29 1008.1 1007.2 0.0
08/11:10am 15.6 9.4 6.1 53 4.7 W 28 59 15 32 1007.6 1006.8 0.0
08/11:00am 15.0 9.0 7.1 59 4.0 W 28 46 15 25 1007.9 1007.1 0.0
08/10:43am 14.2 8.4 7.9 66 3.2 W 28 46 15 25 1007.8 1007.0 0.0
08/10:30am 13.8 7.0 7.8 67 3.0 W 33 46 18 25 1007.4 1006.6 0.0
08/10:03am 13.8 8.0 7.8 67 3.0 W 28 50 15 27 1007.2 1006.4 0.0
08/10:00am 14.1 9.3 8.9 71 2.7 W 24 50 13 27 1007.3 1006.5 0.0
08/09:38am 13.5 7.3 7.7 68 2.9 W 30 48 16 26 1006.9 1006.1 0.0
08/09:30am 13.0 7.5 7.7 70 2.7 W 26 39 14 21 1006.9 1006.1 0.0
08/09:14am 13.0 7.1 7.7 70 2.6 W 28 48 15 26 1006.9 1006.1 0.0
08/09:00am 13.7 8.3 8.1 69 2.8 W 26 41 14 22 1006.8 1006.0 3.0
08/08:30am 13.3 7.4 7.7 69 2.8 W 28 46 15 25 1006.7 1005.9 3.0
08/08:25am 13.0 7.1 7.5 69 2.7 W 28 46 15 25 1006.5 1005.7 3.0
08/08:00am 12.9 8.2 7.8 71 2.6 W 22 37 12 20 1006.4 1005.6 3.0
08/07:30am 12.5 7.0 7.4 71 2.5 W 26 41 14 22 1005.8 1004.9 3.0
08/07:00am 12.0 7.7 7.7 75 2.1 W 20 33 11 18 1005.2 1004.3 3.0
08/06:30am 11.9 6.8 7.6 75 2.1 W 24 37 13 20 1004.4 1003.6 3.0
08/06:16am 11.8 5.5 7.5 75 2.1 W 30 50 16 27 1003.9 1003.1 3.0
08/06:00am 11.8 6.7 7.7 76 2.0 W 24 44 13 24 1004.0 1003.2 3.0
08/05:30am 12.1 7.1 8.0 76 2.1 W 24 35 13 19 1003.8 1002.9 3.0
08/05:00am 12.2 7.6 8.3 77 2.0 W 22 35 12 19 1003.4 1002.5 3.0
08/04:30am 12.2 7.4 8.7 79 1.8 W 24 35 13 19 1002.9 1002.0 3.0
08/04:00am 12.8 7.5 10.0 83 1.5 W 28 52 15 28 1002.4 1001.5 3.0
08/03:52am 13.1 8.0 10.6 85 1.3 W 28 52 15 28 1002.3 1001.4 3.0
08/03:30am 13.7 10.1 11.8 88 1.0 WSW 22 43 12 23 1001.9 1001.0 3.0
08/03:00am 15.0 10.3 12.1 83 1.6 W 28 46 15 25 1001.2 1000.3 3.0
08/02:42am 14.7 10.5 13.4 92 0.7 W 28 50 15 27 1000.8 999.9 3.0
08/02:30am 15.4 12.4 14.8 96 0.4 WNW 24 44 13 24 1000.8 999.9 3.0
08/02:15am 15.4 11.2 14.6 95 0.5 WNW 30 48 16 26 1000.5 999.6 3.0
08/02:00am 15.9 12.0 14.4 91 0.9 WNW 28 44 15 24 1000.5 999.6 3.0
08/01:34am 17.6 13.8 13.7 78 2.2 WNW 26 54 14 29 1000.3 999.4 3.0
08/01:30am 17.7 14.5 14.2 80 2.0 WNW 24 39 13 21 1000.4 999.5 3.0
08/01:00am 18.1 16.3 17.0 93 0.7 NNW 22 33 12 18 1000.4 999.5 3.0
08/12:30am 18.6 17.3 16.9 90 1.0 NNW 19 33 10 18 1000.3 999.4 3.0
08/12:00am 20.6 20.5 16.0 75 2.8 NNW 11 19 6 10 999.9 999.0 3.0
 
Date/Time
CDT
Temp
°C
App
Temp
°C
Dew
Point
°C
Rel
Hum
%
Delta-T
°C
Wind Press
QNH
hPa
Press
MSL
hPa
Rain since
9am
mm
Dir  Spd
km/h
Gust
km/h
Spd
kts
Gust
kts
07/11:30pm 20.2 21.1 16.2 78 2.4 N 6 17 3 9 998.9 998.0 3.0
07/11:00pm 20.0 20.9 16.2 79 2.3 NW 6 13 3 7 999.1 998.2 3.0
07/10:30pm 19.3 20.7 16.5 84 1.7 W 4 7 2 4 1000.0 999.1 3.0
07/10:00pm 18.4 20.5 17.1 92 0.8 NNW 2 6 1 3 1000.6 999.7 3.0
07/09:30pm 19.0 18.9 17.0 88 1.2 NNW 13 22 7 12 1001.3 1000.5 2.8
07/09:00pm 22.4 23.2 14.8 62 4.6 NNE 4 17 2 9 1001.7 1000.9 0.0
07/08:30pm 22.9 23.9 14.2 58 5.2 W 2 4 1 2 1002.0 1001.1 0.0
07/08:00pm 23.2 23.3 13.9 56 5.5 NW 6 15 3 8 1002.5 1001.6 0.0
07/07:30pm 23.8 24.5 14.5 56 5.6 NW 4 9 2 5 1002.9 1002.0 0.0
07/07:00pm 25.5 25.8 14.6 51 6.6 NNW 6 13 3 7 1003.3 1002.4 0.0
07/06:30pm 25.2 25.5 14.6 51 6.4 NW 6 15 3 8 1003.6 1002.7 0.0
07/06:00pm 24.8 24.6 14.6 53 6.2 NNW 9 19 5 10 1004.3 1003.5 0.0
07/05:30pm 24.3 23.5 15.0 56 5.7 NNW 13 20 7 11 1005.2 1004.3 0.0
07/05:00pm 23.5 22.3 15.0 59 5.1 NNW 15 26 8 14 1006.1 1005.2 0.0
07/04:30pm 22.6 21.5 15.2 63 4.5 NW 15 22 8 12 1006.8 1006.0 0.0
07/04:00pm 21.9 20.8 14.3 62 4.5 NW 13 19 7 10 1007.5 1006.7 0.0
07/03:30pm 21.7 20.2 13.1 58 5.0 NW 13 24 7 13 1008.4 1007.5 0.0
07/03:00pm 23.1 20.3 11.2 47 6.8 NNW 17 28 9 15 1008.6 1007.7 0.0
07/02:30pm 24.7 22.7 11.6 44 7.5 NW 13 22 7 12 1009.2 1008.4 0.0
07/02:00pm 24.4 22.6 10.7 42 7.7 NW 11 24 6 13 1009.9 1009.1 0.0
07/01:30pm 25.4 24.6 11.6 42 8.0 N 7 15 4 8 1010.2 1009.4 0.0
07/01:00pm 23.1 21.4 9.8 43 7.4 NNW 9 15 5 8 1010.7 1009.9 0.0
07/12:30pm 23.2 22.1 10.6 45 7.1 N 7 20 4 11 1011.4 1010.5 0.0
07/12:00pm 22.9 21.7 9.7 43 7.3 N 6 13 3 7 1012.0 1011.2 0.0
07/11:30am 21.6 20.2 9.5 46 6.6 NNW 7 13 4 7 1012.5 1011.7 0.0
07/11:00am 21.0 19.6 9.6 48 6.2 NNW 7 19 4 10 1012.9 1012.1 0.0
07/10:30am 19.7 18.3 9.6 52 5.5 NW 7 19 4 10 1013.2 1012.4 0.0
07/10:00am 19.3 18.1 10.3 56 4.9 NNW 7 13 4 7 1013.5 1012.7 0.0
07/09:30am 19.1 18.3 9.6 54 5.1 NNW 4 9 2 5 1013.7 1012.9 0.0
07/09:00am 16.6 15.9 10.0 65 3.5 N 4 7 2 4 1013.9 1013.1 0.0
07/08:30am 14.7 13.8 9.1 69 2.9 NE 4 7 2 4 1014.2 1013.4 0.0
07/08:00am 14.5 13.1 8.7 68 3.0 NE 6 9 3 5 1014.2 1013.4 0.0
07/07:30am 13.7 12.0 8.5 71 2.7 NE 7 11 4 6 1014.2 1013.4 0.0
07/07:00am 12.7 10.9 9.3 80 1.8 NE 9 15 5 8 1014.0 1013.3 0.0
07/06:30am 10.9 8.9 8.5 85 1.2 NE 9 15 5 8 1013.9 1013.1 0.0
07/06:00am 10.6 8.1 8.4 86 1.1 NE 11 17 6 9 1013.9 1013.1 0.0
07/05:30am 10.6 8.9 8.2 85 1.2 NNE 7 11 4 6 1013.7 1012.9 0.0
07/05:00am 10.5 8.8 8.3 86 1.1 NE 7 9 4 5 1013.6 1012.8 0.0
07/04:30am 10.2 7.3 8.3 88 0.9 ENE 13 17 7 9 1013.5 1012.7 0.0
07/04:00am 9.3 7.1 7.9 91 0.7 E 9 11 5 6 1013.5 1012.7 0.0
07/03:30am 9.7 7.2 8.1 90 0.8 ENE 11 13 6 7 1013.7 1012.9 0.0
07/03:00am 9.5 7.4 8.1 91 0.7 E 9 11 5 6 1014.0 1013.3 0.0
07/02:30am 9.8 7.4 8.6 92 0.6 E 11 15 6 8 1014.2 1013.4 0.0
07/02:00am 9.5 7.0 8.3 92 0.6 E 11 13 6 7 1014.8 1014.0 0.0
07/01:30am 9.3 7.5 7.9 91 0.7 E 7 11 4 6 1015.1 1014.3 0.0
07/01:00am 9.3 7.1 7.7 90 0.8 E 9 11 5 6 1015.4 1014.6 0.0
07/12:30am 9.5 7.7 7.8 89 0.8 ESE 7 9 4 5 1015.8 1015.0 0.0
07/12:00am 9.9 8.3 8.0 88 0.9 ESE 6 7 3 4 1016.1 1015.3 0.0
 
Date/Time
CDT
Temp
°C
App
Temp
°C
Dew
Point
°C
Rel
Hum
%
Delta-T
°C
Wind Press
QNH
hPa
Press
MSL
hPa
Rain since
9am
mm
Dir  Spd
km/h
Gust
km/h
Spd
kts
Gust
kts
06/11:30pm 10.4 8.7 8.3 87 1.0 E 7 9 4 5 1016.2 1015.4 0.0
06/11:00pm 10.3 8.7 8.6 89 0.8 ESE 7 9 4 5 1016.3 1015.5 0.0
06/10:30pm 10.1 8.0 8.2 88 0.9 ESE 9 9 5 5 1016.5 1015.8 0.0
06/10:00pm 10.1 7.9 8.0 87 1.0 ESE 9 11 5 6 1016.6 1015.9 0.0
06/09:30pm 10.1 7.6 8.0 87 1.0 ESE 11 13 6 7 1016.5 1015.8 0.0
06/09:00pm 10.5 8.3 7.9 84 1.3 SE 9 11 5 6 1016.6 1015.9 0.0
06/08:30pm 11.4 9.3 8.3 81 1.5 SE 9 11 5 6 1016.6 1015.9 0.0
06/08:00pm 12.7 10.2 8.4 75 2.2 SSE 11 15 6 8 1016.4 1015.6 0.0
06/07:30pm 13.9 10.8 7.4 65 3.2 SSE 13 17 7 9 1016.2 1015.4 0.0
06/07:00pm 14.8 11.8 7.6 62 3.6 SE 13 17 7 9 1015.7 1014.9 0.0
06/06:30pm 15.3 12.0 6.3 55 4.4 SSE 13 17 7 9 1015.7 1014.9 0.0
06/06:00pm 15.7 12.0 6.2 53 4.7 SSE 15 20 8 11 1015.7 1014.9 0.0
06/05:30pm 16.1 12.7 5.7 50 5.1 SSE 13 20 7 11 1015.8 1015.0 0.0
06/05:00pm 16.1 12.5 6.8 54 4.7 SSE 15 22 8 12 1015.8 1015.0 0.0
06/04:30pm 16.6 12.9 7.8 56 4.5 SSE 17 22 9 12 1015.7 1014.9 0.0
06/04:00pm 16.9 13.9 7.8 55 4.7 S 13 20 7 11 1015.9 1015.1 0.0
06/03:30pm 16.5 13.8 7.2 54 4.7 S 11 17 6 9 1016.1 1015.3 0.0
06/03:00pm 16.7 13.4 8.1 57 4.4 SSE 15 24 8 13 1016.1 1015.3 0.0
06/02:30pm 17.2 13.1 7.8 54 4.8 S 19 24 10 13 1016.3 1015.5 0.0
06/02:00pm 16.7 12.5 7.6 55 4.6 SSE 19 28 10 15 1016.3 1015.5 0.0
06/01:30pm 17.1 13.9 10.0 63 3.8 SSE 17 26 9 14 1016.1 1015.3 0.0
06/01:00pm 16.4 12.7 9.6 64 3.6 SSE 19 24 10 13 1016.3 1015.5 0.0
06/12:30pm 15.9 12.9 9.1 64 3.6 S 15 32 8 17 1016.4 1015.6 0.0

Other Formats:

Comma delimited format used in spreadsheet applications
http://www.bom.gov.au/fwo/IDS60801/IDS60801.94811.axf

JavaScript Object Notation format (JSON) in row-major order
http://www.bom.gov.au/fwo/IDS60801/IDS60801.94811.json